createdAt,value
2018-01-30T00:00:34.518Z,11.36
2018-01-30T00:03:02.253Z,11.37
2018-01-30T00:05:29.922Z,11.38
2018-01-30T00:07:57.659Z,11.33
2018-01-30T00:10:25.379Z,11.30
2018-01-30T00:12:54.395Z,11.30
2018-01-30T00:15:22.930Z,11.26
2018-01-30T00:17:50.696Z,11.21
2018-01-30T00:20:18.555Z,11.19
2018-01-30T00:22:46.396Z,11.11
2018-01-30T00:25:14.264Z,11.04
2018-01-30T00:27:41.899Z,10.99
2018-01-30T00:30:09.845Z,10.95
2018-01-30T00:32:37.581Z,10.91
2018-01-30T00:35:05.234Z,10.88
2018-01-30T00:37:32.930Z,10.82
2018-01-30T00:40:00.651Z,10.77
2018-01-30T00:42:28.484Z,10.78
2018-01-30T00:44:56.116Z,10.77
2018-01-30T00:47:23.800Z,10.73
2018-01-30T00:49:51.415Z,10.73
2018-01-30T00:52:19.094Z,10.74
2018-01-30T00:54:46.863Z,10.70
2018-01-30T00:57:15.467Z,10.71
2018-01-30T00:59:43.160Z,10.67
2018-01-30T01:02:10.800Z,10.72
2018-01-30T01:04:39.430Z,10.60
2018-01-30T01:07:07.337Z,10.69
2018-01-30T01:09:35.038Z,10.72
2018-01-30T01:12:02.773Z,10.72
2018-01-30T01:14:30.485Z,10.70
2018-01-30T01:16:58.153Z,10.72
2018-01-30T01:19:26.019Z,10.70
2018-01-30T01:21:53.690Z,10.68
2018-01-30T01:24:21.320Z,10.67
2018-01-30T01:26:49.079Z,10.67
2018-01-30T01:29:16.824Z,10.67
2018-01-30T01:31:45.656Z,10.68
2018-01-30T01:34:13.367Z,10.65
2018-01-30T01:36:41.075Z,10.67
2018-01-30T01:39:08.724Z,10.62
2018-01-30T01:41:37.533Z,10.63
2018-01-30T01:44:05.268Z,10.64
2018-01-30T01:46:32.918Z,10.60
2018-01-30T01:49:00.662Z,10.54
2018-01-30T01:51:28.362Z,10.45
2018-01-30T01:53:56.914Z,10.50
2018-01-30T01:56:24.544Z,10.48
2018-01-30T01:58:52.665Z,10.45
2018-01-30T02:01:20.329Z,10.42
2018-01-30T02:03:47.965Z,10.39
2018-01-30T02:06:15.700Z,10.38
2018-01-30T02:08:43.981Z,10.36
2018-01-30T02:11:11.617Z,10.34
2018-01-30T02:13:39.264Z,10.32
2018-01-30T02:16:06.874Z,10.32
2018-01-30T02:18:35.073Z,10.31
2018-01-30T02:21:03.418Z,10.30
2018-01-30T02:23:31.043Z,10.28
2018-01-30T02:25:58.762Z,10.31
2018-01-30T02:28:26.486Z,10.29
2018-01-30T02:30:55.128Z,10.28
2018-01-30T02:33:22.819Z,10.31
2018-01-30T02:35:50.696Z,10.21
2018-01-30T02:38:18.533Z,10.28
2018-01-30T02:40:46.226Z,10.31
2018-01-30T02:43:14.017Z,10.31
2018-01-30T02:45:42.002Z,10.34
2018-01-30T02:48:11.534Z,10.31
2018-01-30T02:50:39.314Z,10.30
2018-01-30T02:53:06.985Z,10.28
2018-01-30T02:55:34.647Z,10.27
2018-01-30T02:58:02.334Z,10.24
2018-01-30T03:00:31.836Z,10.21
2018-01-30T03:02:59.568Z,10.17
2018-01-30T03:05:28.767Z,10.16
2018-01-30T03:07:57.121Z,10.12
2018-01-30T03:10:25.528Z,10.06
2018-01-30T03:12:53.788Z,10.01
2018-01-30T03:15:22.285Z,10.03
2018-01-30T03:17:49.987Z,10.02
2018-01-30T03:20:17.731Z,9.98
2018-01-30T03:22:45.480Z,9.97
2018-01-30T03:25:13.322Z,9.89
2018-01-30T03:27:41.071Z,9.89
2018-01-30T03:30:09.017Z,9.87
2018-01-30T03:32:36.688Z,9.87
2018-01-30T03:35:04.477Z,9.87
2018-01-30T03:37:32.301Z,9.87
2018-01-30T03:40:00.132Z,9.82
2018-01-30T03:42:28.616Z,9.83
2018-01-30T03:44:56.244Z,9.83
2018-01-30T03:47:24.740Z,9.79
2018-01-30T03:49:53.346Z,9.75
2018-01-30T03:52:21.006Z,9.78
2018-01-30T03:54:48.781Z,9.76
2018-01-30T03:57:16.472Z,9.72
2018-01-30T03:59:44.126Z,9.69
2018-01-30T04:02:11.843Z,9.65
2018-01-30T04:04:39.472Z,9.65
2018-01-30T04:07:07.303Z,9.61
2018-01-30T04:09:35.162Z,9.60
2018-01-30T04:12:02.916Z,9.60
2018-01-30T04:14:30.769Z,9.60
2018-01-30T04:17:00.042Z,9.57
2018-01-30T04:19:27.854Z,9.61
2018-01-30T04:21:55.762Z,9.57
2018-01-30T04:24:23.499Z,9.56
2018-01-30T04:26:51.172Z,9.55
2018-01-30T04:29:18.805Z,9.40
2018-01-30T04:31:46.584Z,9.57
2018-01-30T04:34:14.239Z,9.29
2018-01-30T04:36:42.049Z,9.51
2018-01-30T04:39:09.779Z,9.55
2018-01-30T04:41:37.498Z,9.54
2018-01-30T04:44:05.215Z,9.57
2018-01-30T04:46:32.997Z,9.54
2018-01-30T04:49:00.807Z,9.53
2018-01-30T04:51:28.544Z,9.49
2018-01-30T04:53:56.249Z,9.49
2018-01-30T04:56:24.259Z,9.48
2018-01-30T04:58:52.036Z,9.35
2018-01-30T05:01:20.473Z,9.45
2018-01-30T05:03:48.378Z,9.48
2018-01-30T05:06:16.132Z,9.47
2018-01-30T05:08:44.000Z,9.45
2018-01-30T05:11:11.798Z,9.44
2018-01-30T05:13:39.666Z,9.44
2018-01-30T05:16:07.488Z,9.43
2018-01-30T05:18:35.219Z,9.46
2018-01-30T05:21:02.995Z,9.43
2018-01-30T05:23:30.553Z,9.41
2018-01-30T05:25:58.325Z,9.40
2018-01-30T05:28:25.956Z,9.39
2018-01-30T05:30:53.672Z,9.58
2018-01-30T05:33:21.262Z,9.24
2018-01-30T05:35:48.854Z,9.13
2018-01-30T05:38:16.408Z,8.88
2018-01-30T05:40:43.966Z,8.71
2018-01-30T05:43:11.636Z,8.54
2018-01-30T05:45:39.184Z,9.47
2018-01-30T05:48:07.005Z,9.23
2018-01-30T05:50:34.560Z,8.96
2018-01-30T05:53:02.099Z,8.88
2018-01-30T05:55:29.811Z,8.82
2018-01-30T05:57:57.652Z,8.89
2018-01-30T06:00:26.492Z,9.02
2018-01-30T06:02:54.356Z,9.37
2018-01-30T06:05:21.981Z,9.66
2018-01-30T06:07:49.632Z,9.98
2018-01-30T06:10:18.066Z,10.37
2018-01-30T06:12:46.214Z,10.84
2018-01-30T06:15:14.175Z,11.32
2018-01-30T06:17:42.101Z,11.79
2018-01-30T06:20:09.862Z,12.28
2018-01-30T06:22:37.471Z,12.75
2018-01-30T06:25:05.175Z,13.24
2018-01-30T06:27:33.245Z,13.68
2018-01-30T06:30:00.897Z,14.18
2018-01-30T06:32:28.783Z,14.66
2018-01-30T06:34:56.436Z,15.01
2018-01-30T06:37:24.266Z,15.49
2018-01-30T06:39:52.127Z,15.98
2018-01-30T06:42:20.005Z,16.53
2018-01-30T06:44:47.644Z,17.13
2018-01-30T06:47:15.283Z,17.74
2018-01-30T06:49:43.058Z,18.32
2018-01-30T06:52:11.247Z,18.89
2018-01-30T06:54:39.050Z,19.46
2018-01-30T06:57:06.628Z,19.84
2018-01-30T06:59:34.560Z,20.21
2018-01-30T07:02:02.201Z,20.50
2018-01-30T07:04:29.798Z,20.99
2018-01-30T07:06:57.917Z,21.50
2018-01-30T07:09:25.561Z,21.98
2018-01-30T07:11:53.197Z,22.32
2018-01-30T07:14:20.778Z,22.66
2018-01-30T07:16:48.416Z,22.91
2018-01-30T07:19:16.194Z,23.13
2018-01-30T07:21:43.792Z,23.33
2018-01-30T07:24:11.434Z,23.60
2018-01-30T07:26:38.964Z,24.04
2018-01-30T07:29:06.493Z,24.38
2018-01-30T07:31:34.351Z,24.62
2018-01-30T07:34:01.890Z,25.17
2018-01-30T07:36:29.575Z,25.83
2018-01-30T07:38:57.165Z,26.58
2018-01-30T07:41:25.052Z,27.22
2018-01-30T07:43:52.728Z,27.83
2018-01-30T07:46:20.288Z,28.42
2018-01-30T07:48:48.101Z,28.81
2018-01-30T07:51:16.007Z,29.01
2018-01-30T07:53:43.671Z,29.00
2018-01-30T07:56:11.207Z,29.07
2018-01-30T07:58:38.752Z,28.98
2018-01-30T08:01:06.444Z,28.95
2018-01-30T08:03:34.252Z,28.90
2018-01-30T08:06:02.104Z,28.95
2018-01-30T08:08:30.746Z,29.04
2018-01-30T08:10:58.425Z,29.27
2018-01-30T08:13:26.127Z,29.36
2018-01-30T08:15:53.647Z,29.51
2018-01-30T08:18:21.506Z,29.76
2018-01-30T08:20:49.087Z,30.01
2018-01-30T08:23:16.885Z,30.25
2018-01-30T08:25:44.540Z,30.29
2018-01-30T08:28:12.363Z,30.28
2018-01-30T08:30:40.038Z,30.36
2018-01-30T08:33:08.359Z,30.55
2018-01-30T08:35:35.973Z,30.66
2018-01-30T08:38:03.546Z,30.95
2018-01-30T08:40:32.064Z,31.06
2018-01-30T08:42:59.896Z,31.14
2018-01-30T08:45:27.469Z,31.20
2018-01-30T08:47:55.361Z,31.34
2018-01-30T08:50:22.952Z,31.48
2018-01-30T08:52:50.509Z,31.60
2018-01-30T08:55:18.180Z,31.75
2018-01-30T08:57:45.778Z,31.94
2018-01-30T09:00:13.618Z,32.00
2018-01-30T09:02:41.201Z,32.11
2018-01-30T09:05:08.787Z,32.26
2018-01-30T09:07:36.573Z,32.39
2018-01-30T09:10:04.192Z,32.54
2018-01-30T09:12:31.866Z,32.70
2018-01-30T09:14:59.391Z,32.87
2018-01-30T09:17:27.178Z,32.91
2018-01-30T09:19:54.706Z,33.01
2018-01-30T09:22:22.473Z,33.13
2018-01-30T09:24:50.122Z,33.23
2018-01-30T09:27:17.685Z,33.23
2018-01-30T09:29:45.264Z,33.34
2018-01-30T09:32:12.845Z,33.41
2018-01-30T09:34:40.417Z,33.45
2018-01-30T09:37:08.125Z,33.55
2018-01-30T09:39:35.689Z,33.59
2018-01-30T09:42:04.948Z,33.47
2018-01-30T09:44:33.544Z,33.38
2018-01-30T09:47:01.088Z,33.43
2018-01-30T09:49:28.893Z,33.46
2018-01-30T09:51:56.498Z,33.41
2018-01-30T09:54:24.121Z,33.38
2018-01-30T09:56:51.872Z,33.45
2018-01-30T09:59:19.534Z,33.40
2018-01-30T10:01:47.364Z,33.39
2018-01-30T10:04:14.952Z,33.38
2018-01-30T10:06:42.686Z,33.39
2018-01-30T10:09:10.226Z,33.42
2018-01-30T10:11:37.769Z,33.38
2018-01-30T10:14:05.418Z,33.27
2018-01-30T10:16:32.952Z,33.31
2018-01-30T10:19:00.638Z,33.24
2018-01-30T10:21:28.154Z,33.19
2018-01-30T10:23:55.704Z,33.18
2018-01-30T10:26:23.231Z,33.13
2018-01-30T10:28:51.752Z,33.11
2018-01-30T10:31:19.402Z,33.04
2018-01-30T10:33:46.923Z,32.97
2018-01-30T10:36:15.590Z,32.84
2018-01-30T10:38:44.134Z,32.73
2018-01-30T10:41:11.734Z,32.70
2018-01-30T10:43:39.487Z,32.66
2018-01-30T10:46:07.304Z,32.65
2018-01-30T10:48:34.847Z,32.52
2018-01-30T10:51:02.510Z,32.42
2018-01-30T10:53:30.069Z,32.32
2018-01-30T10:55:57.789Z,32.23
2018-01-30T10:58:25.325Z,32.12
2018-01-30T11:00:53.084Z,32.02
2018-01-30T11:03:20.850Z,31.95
2018-01-30T11:05:48.510Z,31.89
2018-01-30T11:08:16.122Z,31.78
2018-01-30T11:10:43.921Z,31.67
2018-01-30T11:13:11.673Z,31.57
2018-01-30T11:15:39.345Z,31.47
2018-01-30T11:18:06.960Z,31.35
2018-01-30T11:20:34.544Z,31.32
2018-01-30T11:23:02.128Z,31.29
2018-01-30T11:25:29.661Z,31.17
2018-01-30T11:27:57.269Z,31.02
2018-01-30T11:30:24.919Z,30.87
2018-01-30T11:32:52.514Z,30.84
2018-01-30T11:35:20.366Z,30.71
2018-01-30T11:37:47.965Z,30.69
2018-01-30T11:40:15.660Z,30.61
2018-01-30T11:42:43.354Z,30.59
2018-01-30T11:45:11.308Z,30.54
2018-01-30T11:47:39.032Z,30.47
2018-01-30T11:50:06.728Z,30.46
2018-01-30T11:52:34.316Z,30.34
2018-01-30T11:55:01.983Z,30.19
2018-01-30T11:57:29.721Z,30.12
2018-01-30T11:59:57.307Z,30.04
2018-01-30T12:02:24.858Z,29.96
2018-01-30T12:04:52.511Z,29.83
2018-01-30T12:07:20.161Z,29.69
2018-01-30T12:09:47.715Z,29.53
2018-01-30T12:12:15.640Z,29.42
2018-01-30T12:14:43.488Z,29.34
2018-01-30T12:17:11.061Z,29.22
2018-01-30T12:19:38.720Z,29.12
2018-01-30T12:22:07.503Z,28.95
2018-01-30T12:24:35.246Z,28.78
2018-01-30T12:27:03.117Z,28.66
2018-01-30T12:29:31.104Z,28.53
2018-01-30T12:31:59.350Z,28.41
2018-01-30T12:34:26.942Z,28.30
2018-01-30T12:36:54.627Z,28.15
2018-01-30T12:39:23.094Z,28.04
2018-01-30T12:41:50.851Z,28.00
2018-01-30T12:44:19.236Z,27.88
2018-01-30T12:46:46.786Z,27.83
2018-01-30T12:49:15.243Z,27.77
2018-01-30T12:51:42.849Z,27.50
2018-01-30T12:54:10.463Z,27.36
2018-01-30T12:56:38.081Z,27.17
2018-01-30T12:59:06.290Z,27.02
2018-01-30T13:01:33.930Z,26.91
2018-01-30T13:04:01.485Z,26.75
2018-01-30T13:06:29.149Z,26.57
2018-01-30T13:08:56.743Z,26.48
2018-01-30T13:11:24.278Z,26.30
2018-01-30T13:13:51.827Z,26.14
2018-01-30T13:16:19.574Z,25.91
2018-01-30T13:18:47.417Z,25.72
2018-01-30T13:21:15.070Z,25.36
2018-01-30T13:23:42.732Z,25.39
2018-01-30T13:26:11.481Z,25.28
2018-01-30T13:28:39.179Z,25.01
2018-01-30T13:31:06.881Z,24.91
2018-01-30T13:33:34.840Z,24.50
2018-01-30T13:36:02.437Z,24.56
2018-01-30T13:38:30.131Z,24.46
2018-01-30T13:40:57.760Z,24.60
2018-01-30T13:43:25.428Z,24.37
2018-01-30T13:45:53.753Z,24.25
2018-01-30T13:48:21.287Z,23.99
2018-01-30T13:50:48.869Z,23.76
2018-01-30T13:53:16.592Z,23.54
2018-01-30T13:55:44.312Z,23.40
2018-01-30T13:58:12.058Z,23.31
2018-01-30T14:00:39.838Z,23.02
2018-01-30T14:03:07.696Z,22.80
2018-01-30T14:05:35.281Z,22.58
2018-01-30T14:08:02.937Z,22.28
2018-01-30T14:10:30.702Z,22.01
2018-01-30T14:12:58.417Z,21.78
2018-01-30T14:15:25.965Z,21.84
2018-01-30T14:17:53.688Z,21.41
2018-01-30T14:20:21.298Z,21.07
2018-01-30T14:22:48.894Z,20.79
2018-01-30T14:25:16.592Z,20.46
2018-01-30T14:27:44.117Z,20.36
2018-01-30T14:30:11.823Z,20.29
2018-01-30T14:32:39.445Z,20.15
2018-01-30T14:35:07.012Z,19.91
2018-01-30T14:37:34.597Z,19.71
2018-01-30T14:40:02.272Z,19.58
2018-01-30T14:42:29.937Z,19.40
2018-01-30T14:44:57.454Z,19.18
2018-01-30T14:47:25.060Z,19.01
2018-01-30T14:49:53.093Z,18.79
2018-01-30T14:52:20.609Z,18.63
2018-01-30T14:54:48.277Z,18.50
2018-01-30T14:57:15.828Z,18.33
2018-01-30T14:59:43.357Z,18.17
2018-01-30T15:02:11.106Z,18.18
2018-01-30T15:04:38.637Z,18.42
2018-01-30T15:07:06.345Z,18.27
2018-01-30T15:09:33.883Z,18.05
2018-01-30T15:12:01.463Z,17.88
2018-01-30T15:14:29.233Z,17.78
2018-01-30T15:16:56.805Z,17.59
2018-01-30T15:19:24.471Z,17.50
2018-01-30T15:21:52.257Z,17.38
2018-01-30T15:24:19.769Z,17.21
2018-01-30T15:26:47.635Z,17.13
2018-01-30T15:29:15.276Z,17.02
2018-01-30T15:31:42.905Z,16.91
2018-01-30T15:34:10.511Z,16.71
2018-01-30T15:36:38.199Z,16.63
2018-01-30T15:39:05.760Z,16.54
2018-01-30T15:41:33.287Z,16.39
2018-01-30T15:44:00.821Z,16.30
2018-01-30T15:46:28.345Z,16.20
2018-01-30T15:48:56.268Z,16.11
2018-01-30T15:51:23.812Z,16.00
2018-01-30T15:53:51.374Z,15.91
2018-01-30T15:56:18.908Z,15.82
2018-01-30T15:58:46.519Z,15.72
2018-01-30T16:01:14.244Z,15.57
2018-01-30T16:03:41.889Z,15.56
2018-01-30T16:06:09.561Z,15.43
2018-01-30T16:08:37.301Z,15.37
2018-01-30T16:11:04.845Z,15.30
2018-01-30T16:13:32.540Z,15.19
2018-01-30T16:16:00.080Z,15.17
2018-01-30T16:18:28.558Z,15.03
2018-01-30T16:20:56.201Z,15.03
2018-01-30T16:23:24.189Z,14.96
2018-01-30T16:25:51.871Z,14.94
2018-01-30T16:28:19.455Z,14.88
2018-01-30T16:30:48.039Z,14.80
2018-01-30T16:33:15.620Z,14.72
2018-01-30T16:35:43.873Z,14.73
2018-01-30T16:38:11.457Z,14.71
2018-01-30T16:40:38.997Z,14.64
2018-01-30T16:43:06.756Z,14.59
2018-01-30T16:45:34.314Z,14.62
2018-01-30T16:48:01.877Z,14.61
2018-01-30T16:50:29.405Z,14.58
2018-01-30T16:52:56.955Z,14.54
2018-01-30T16:55:25.588Z,14.49
2018-01-30T16:57:53.372Z,14.44
2018-01-30T17:00:21.127Z,14.63
2018-01-30T17:02:48.645Z,14.58
2018-01-30T17:05:16.509Z,14.70
2018-01-30T17:07:44.036Z,14.61
2018-01-30T17:10:11.575Z,14.46
2018-01-30T17:12:39.241Z,14.41
2018-01-30T17:15:06.819Z,14.35
2018-01-30T17:17:34.543Z,14.31
2018-01-30T17:20:03.085Z,14.24
2018-01-30T17:22:30.845Z,14.21
2018-01-30T17:24:58.592Z,14.19
2018-01-30T17:27:26.159Z,14.17
2018-01-30T17:29:53.998Z,14.12
2018-01-30T17:32:21.601Z,14.06
2018-01-30T17:34:49.481Z,14.03
2018-01-30T17:37:17.208Z,13.92
2018-01-30T17:39:45.074Z,13.95
2018-01-30T17:42:12.699Z,13.80
2018-01-30T17:44:40.346Z,13.81
2018-01-30T17:47:07.952Z,13.73
2018-01-30T17:49:35.603Z,13.78
2018-01-30T17:52:03.202Z,13.83
2018-01-30T17:54:30.762Z,13.80
2018-01-30T17:56:58.297Z,13.77
2018-01-30T17:59:25.844Z,13.72
2018-01-30T18:01:53.417Z,13.58
2018-01-30T18:04:20.952Z,13.67
2018-01-30T18:06:48.620Z,13.61
2018-01-30T18:09:16.224Z,13.59
2018-01-30T18:11:44.003Z,13.55
2018-01-30T18:14:11.642Z,13.59
2018-01-30T18:16:39.162Z,13.63
2018-01-30T18:19:06.837Z,13.46
2018-01-30T18:21:34.525Z,13.34
2018-01-30T18:24:02.198Z,13.45
2018-01-30T18:26:30.172Z,13.43
2018-01-30T18:28:57.997Z,13.37
2018-01-30T18:31:27.149Z,13.35
2018-01-30T18:33:55.224Z,13.34
2018-01-30T18:36:22.839Z,13.93
2018-01-30T18:38:51.002Z,14.55
2018-01-30T18:41:18.547Z,14.89
2018-01-30T18:43:46.803Z,15.06
2018-01-30T18:46:14.364Z,15.27
2018-01-30T18:48:42.410Z,15.35
2018-01-30T18:51:10.181Z,15.06
2018-01-30T18:53:37.802Z,14.68
2018-01-30T18:56:05.662Z,14.32
2018-01-30T18:58:35.196Z,14.67
2018-01-30T19:01:03.150Z,14.93
2018-01-30T19:03:30.752Z,14.80
2018-01-30T19:05:58.831Z,14.66
2018-01-30T19:08:26.509Z,14.55
2018-01-30T19:10:54.066Z,14.55
2018-01-30T19:13:22.651Z,14.46
2018-01-30T19:15:51.748Z,14.37
2018-01-30T19:18:21.381Z,14.28
2018-01-30T19:20:49.552Z,14.23
2018-01-30T19:23:23.077Z,14.17
2018-01-30T19:25:56.004Z,14.14
2018-01-30T19:28:26.396Z,14.09
2018-01-30T19:30:55.236Z,14.02
2018-01-30T19:33:25.555Z,13.97
2018-01-30T19:35:53.580Z,13.97
2018-01-30T19:38:21.535Z,13.96
2018-01-30T19:40:50.782Z,13.80
2018-01-30T19:45:53.469Z,13.95
2018-01-30T19:48:21.298Z,13.92
2018-01-30T19:50:49.283Z,13.89
2018-01-30T19:53:17.926Z,13.86
2018-01-30T19:55:45.539Z,13.77
2018-01-30T19:58:13.094Z,13.82
2018-01-30T20:00:40.805Z,13.82
2018-01-30T20:03:08.441Z,14.23
2018-01-30T20:05:36.127Z,14.68
2018-01-30T20:08:04.076Z,14.59
2018-01-30T20:10:31.705Z,14.33
2018-01-30T20:13:00.603Z,14.24
2018-01-30T20:15:28.282Z,14.14
2018-01-30T20:17:56.014Z,14.07
2018-01-30T20:20:23.705Z,13.99
2018-01-30T20:22:51.397Z,13.96
2018-01-30T20:25:19.145Z,13.91
2018-01-30T20:27:47.281Z,13.84
2018-01-30T20:30:16.095Z,13.78
2018-01-30T20:32:44.202Z,13.67
2018-01-30T20:35:12.326Z,13.67
2018-01-30T20:37:40.332Z,13.82
2018-01-30T20:40:08.893Z,13.73
2018-01-30T20:42:36.481Z,13.73
2018-01-30T20:45:04.207Z,13.68
2018-01-30T20:47:32.285Z,13.64
2018-01-30T20:49:59.960Z,13.60
2018-01-30T20:52:27.658Z,13.59
2018-01-30T20:54:55.847Z,13.54
2018-01-30T20:57:23.491Z,13.37
2018-01-30T20:59:54.759Z,13.48
2018-01-30T21:02:22.515Z,13.45
2018-01-30T21:04:50.292Z,13.41
2018-01-30T21:07:18.084Z,13.41
2018-01-30T21:09:47.113Z,13.36
2018-01-30T21:12:15.025Z,13.31
2018-01-30T21:14:42.685Z,13.31
2018-01-30T21:17:10.362Z,13.30
2018-01-30T21:19:38.907Z,13.28
2018-01-30T21:22:06.563Z,13.35
2018-01-30T21:24:35.119Z,13.22
2018-01-30T21:27:02.778Z,13.20
2018-01-30T21:29:30.574Z,13.21
2018-01-30T21:31:58.212Z,13.15
2018-01-30T21:34:27.497Z,13.19
2018-01-30T21:36:55.226Z,13.17
2018-01-30T21:39:22.791Z,13.17
2018-01-30T21:41:50.909Z,13.12
2018-01-30T21:44:19.545Z,13.11
2018-01-30T21:46:47.201Z,13.13
2018-01-30T21:49:14.877Z,13.11
2018-01-30T21:51:42.472Z,13.08
2018-01-30T21:54:10.080Z,13.04
2018-01-30T21:56:37.690Z,13.05
2018-01-30T21:59:05.791Z,13.02
2018-01-30T22:01:33.791Z,13.02
2018-01-30T22:04:01.401Z,12.98
2018-01-30T22:06:29.321Z,12.94
2018-01-30T22:08:57.033Z,12.91
2018-01-30T22:11:24.766Z,12.86
2018-01-30T22:13:52.417Z,12.83
2018-01-30T22:16:20.141Z,12.75
2018-01-30T22:18:47.917Z,12.77
2018-01-30T22:21:15.610Z,12.73
2018-01-30T22:23:43.274Z,12.73
2018-01-30T22:26:10.877Z,12.72
2018-01-30T22:28:38.537Z,12.67
2018-01-30T22:31:06.366Z,12.65
2018-01-30T22:33:34.144Z,12.63
2018-01-30T22:36:01.931Z,12.64
2018-01-30T22:38:29.592Z,12.62
2018-01-30T22:40:57.209Z,12.59
2018-01-30T22:43:24.970Z,12.58
2018-01-30T22:45:52.596Z,12.56
